createdAt,value
2022-10-31T00:00:46.230Z,2.3
2022-10-31T00:01:54.833Z,1.7
2022-10-31T00:03:03.666Z,1.8
2022-10-31T00:04:12.146Z,1.6
2022-10-31T00:05:21.801Z,1.9
2022-10-31T00:06:29.481Z,1.5
2022-10-31T00:07:39.143Z,1.7
2022-10-31T00:08:47.933Z,1.5
2022-10-31T00:09:56.572Z,1.7
2022-10-31T00:11:06.262Z,1.6
2022-10-31T00:12:14.916Z,1.6
2022-10-31T00:13:23.720Z,1.8
2022-10-31T00:14:33.305Z,1.4
2022-10-31T00:15:40.984Z,1.8
2022-10-31T00:16:50.664Z,2.1
2022-10-31T00:18:00.512Z,1.9
2022-10-31T00:19:09.997Z,1.5
2022-10-31T00:20:19.691Z,1.7
2022-10-31T00:21:27.378Z,1.7
2022-10-31T00:22:37.078Z,1.6
2022-10-31T00:23:46.744Z,1.8
2022-10-31T00:24:55.425Z,1.5
2022-10-31T00:26:05.125Z,1.1
2022-10-31T00:27:14.789Z,1.3
2022-10-31T00:28:23.457Z,1.2
2022-10-31T00:29:33.196Z,1.8
2022-10-31T00:30:41.893Z,1.1
2022-10-31T00:31:51.565Z,1.1
2022-10-31T00:33:01.517Z,1.3
2022-10-31T00:34:09.882Z,1.1
2022-10-31T00:35:19.548Z,1.1
2022-10-31T00:36:29.215Z,1.3
2022-10-31T00:37:37.000Z,0.9
2022-10-31T00:38:46.701Z,0.9
2022-10-31T00:39:54.337Z,1.1
2022-10-31T00:41:04.011Z,0.9
2022-10-31T00:42:13.691Z,1.2
2022-10-31T00:43:22.378Z,1.2
2022-10-31T00:44:32.035Z,1
2022-10-31T00:45:41.718Z,1.1
2022-10-31T00:46:49.363Z,1.1
2022-10-31T00:47:59.248Z,1.1
2022-10-31T00:49:07.722Z,1.1
2022-10-31T00:50:17.383Z,1
2022-10-31T00:51:27.059Z,1
2022-10-31T00:52:34.702Z,1.2
2022-10-31T00:53:44.366Z,1.1
2022-10-31T00:54:54.041Z,1
2022-10-31T00:56:02.696Z,0.9
2022-10-31T00:57:12.382Z,1.3
2022-10-31T00:58:21.042Z,1
2022-10-31T00:59:30.693Z,0.8
2022-10-31T01:00:40.387Z,1.5
2022-10-31T01:01:50.148Z,1.4
2022-10-31T01:03:00.110Z,0.9
2022-10-31T01:04:09.481Z,1.2
2022-10-31T01:05:18.151Z,1.1
2022-10-31T01:06:27.841Z,0.9
2022-10-31T01:07:35.488Z,1.4
2022-10-31T01:08:45.156Z,1.1
2022-10-31T01:09:54.819Z,1.4
2022-10-31T01:11:03.489Z,1
2022-10-31T01:12:13.209Z,1.6
2022-10-31T01:14:29.532Z,1.4
2022-10-31T01:15:39.203Z,1
2022-10-31T01:16:47.887Z,1.3
2022-10-31T01:17:56.752Z,1.1
2022-10-31T01:19:06.240Z,1
2022-10-31T01:20:13.973Z,1.3
2022-10-31T01:21:23.644Z,1
2022-10-31T01:22:32.295Z,1.5
2022-10-31T01:23:40.981Z,1.4
2022-10-31T01:24:50.696Z,0.9
2022-10-31T01:25:59.363Z,1.3
2022-10-31T01:27:08.014Z,1.2
2022-10-31T01:28:17.686Z,1.2
2022-10-31T01:29:25.342Z,1
2022-10-31T01:30:35.004Z,1
2022-10-31T01:31:43.653Z,1
2022-10-31T01:32:53.312Z,1.4
2022-10-31T01:34:03.020Z,1.4
2022-10-31T01:35:10.756Z,1.1
2022-10-31T01:36:20.437Z,1.2
2022-10-31T01:37:30.109Z,1.1
2022-10-31T01:38:38.799Z,1.3
2022-10-31T01:39:47.464Z,1.3
2022-10-31T01:40:57.259Z,1.2
2022-10-31T01:42:05.906Z,1.3
2022-10-31T01:43:15.601Z,1.1
2022-10-31T01:44:25.246Z,1.2
2022-10-31T01:45:32.896Z,1.1
2022-10-31T01:46:42.585Z,1.5
2022-10-31T01:47:51.258Z,1.2
2022-10-31T01:48:59.982Z,1
2022-10-31T01:50:09.679Z,1
2022-10-31T01:51:18.328Z,1.3
2022-10-31T01:52:28.032Z,1.1
2022-10-31T01:53:36.709Z,1.2
2022-10-31T01:54:44.359Z,1.1
2022-10-31T01:55:54.035Z,1.3
2022-10-31T01:57:02.704Z,1.2
2022-10-31T01:58:11.453Z,1.3
2022-10-31T01:59:20.045Z,1
2022-10-31T02:00:29.715Z,1.7
2022-10-31T02:01:38.466Z,1.4
2022-10-31T02:02:48.103Z,1.2
2022-10-31T02:03:56.758Z,1.1
2022-10-31T02:05:05.439Z,1.6
2022-10-31T02:06:15.161Z,3.1
2022-10-31T02:07:22.825Z,5
2022-10-31T02:08:32.498Z,1.7
2022-10-31T02:09:41.180Z,1.1
2022-10-31T02:10:49.844Z,1.2
2022-10-31T02:11:59.528Z,1.4
2022-10-31T02:13:07.185Z,1.2
2022-10-31T02:14:15.898Z,1
2022-10-31T02:15:24.672Z,1.3
2022-10-31T02:16:33.324Z,1
2022-10-31T02:17:43.015Z,1.2
2022-10-31T02:18:51.674Z,1.1
2022-10-31T02:20:00.328Z,1.2
2022-10-31T02:21:10.009Z,1.2
2022-10-31T02:22:19.709Z,0.9
2022-10-31T02:23:29.348Z,0.8
2022-10-31T02:24:39.041Z,0.9
2022-10-31T02:25:47.735Z,0.7
2022-10-31T02:26:57.411Z,1
2022-10-31T02:28:07.116Z,0.9
2022-10-31T02:29:14.721Z,1.2
2022-10-31T02:30:24.390Z,0.6
2022-10-31T02:31:33.036Z,1.1
2022-10-31T02:32:41.733Z,0.9
2022-10-31T02:33:51.391Z,0.8
2022-10-31T02:34:59.040Z,1.1
2022-10-31T02:36:08.704Z,1.1
2022-10-31T02:37:17.368Z,0.9
2022-10-31T02:38:26.087Z,0.6
2022-10-31T02:39:35.741Z,0.6
2022-10-31T02:40:44.403Z,0.7
2022-10-31T02:41:54.069Z,1
2022-10-31T02:43:04.172Z,0.9
2022-10-31T02:44:13.519Z,1
2022-10-31T02:45:23.184Z,1.2
2022-10-31T02:46:31.852Z,1
2022-10-31T02:47:41.520Z,1
2022-10-31T02:48:51.214Z,1
2022-10-31T02:49:59.855Z,1
2022-10-31T02:51:08.527Z,0.8
2022-10-31T02:52:18.228Z,0.6
2022-10-31T02:53:26.899Z,1.1
2022-10-31T02:54:36.592Z,0.8
2022-10-31T02:55:46.796Z,1
2022-10-31T02:56:56.498Z,0.7
2022-10-31T02:58:06.237Z,0.7
2022-10-31T02:59:13.819Z,0.8
2022-10-31T03:00:29.982Z,0.7
2022-10-31T03:01:39.834Z,1
2022-10-31T03:02:48.514Z,0.9
2022-10-31T03:03:56.210Z,0.9
2022-10-31T03:05:06.049Z,0.8
2022-10-31T03:06:14.801Z,0.8
2022-10-31T03:07:24.506Z,0.6
2022-10-31T03:08:34.251Z,1.6
2022-10-31T03:09:44.046Z,0.8
2022-10-31T03:10:53.714Z,0.9
2022-10-31T03:12:03.445Z,1.4
2022-10-31T03:13:11.271Z,0.9
2022-10-31T03:14:20.959Z,0.7
2022-10-31T03:15:28.610Z,0.8
2022-10-31T03:16:37.292Z,1.1
2022-10-31T03:17:47.000Z,0.8
2022-10-31T03:18:54.859Z,1
2022-10-31T03:20:04.545Z,1
2022-10-31T03:21:14.304Z,1.4
2022-10-31T03:22:21.973Z,0.9
2022-10-31T03:23:31.880Z,1
2022-10-31T03:24:39.619Z,1.3
2022-10-31T03:25:48.468Z,0.8
2022-10-31T03:26:57.301Z,0.7
2022-10-31T03:28:06.128Z,1
2022-10-31T03:29:15.951Z,1.2
2022-10-31T03:30:24.688Z,1.2
2022-10-31T03:31:32.409Z,1
2022-10-31T03:32:42.129Z,1
2022-10-31T03:33:50.865Z,1.3
2022-10-31T03:34:59.537Z,1.1
2022-10-31T03:36:09.329Z,1.2
2022-10-31T03:37:17.047Z,1
2022-10-31T03:38:26.795Z,1.6
2022-10-31T03:39:35.518Z,1.3
2022-10-31T03:40:43.225Z,1
2022-10-31T03:41:53.001Z,1.2
2022-10-31T03:43:02.027Z,1.2
2022-10-31T03:44:10.419Z,1.6
2022-10-31T03:45:20.255Z,1.3
2022-10-31T03:46:27.994Z,1.1
2022-10-31T03:47:37.845Z,1.4
2022-10-31T03:48:47.527Z,1.5
2022-10-31T03:49:56.280Z,1.2
2022-10-31T03:51:06.090Z,0.8
2022-10-31T03:52:13.769Z,0.9
2022-10-31T03:53:22.481Z,1.3
2022-10-31T03:54:31.183Z,1.1
2022-10-31T03:55:39.972Z,1.9
2022-10-31T03:56:49.713Z,1.1
2022-10-31T03:57:59.744Z,1.2
2022-10-31T03:59:09.210Z,1.3
2022-10-31T04:00:18.007Z,1.2
2022-10-31T04:01:27.884Z,1.4
2022-10-31T04:02:36.558Z,1.2
2022-10-31T04:03:46.151Z,1.3
2022-10-31T04:04:54.901Z,1.4
2022-10-31T04:06:03.634Z,1.3
2022-10-31T04:07:13.334Z,1.2
2022-10-31T04:08:22.069Z,1.5
2022-10-31T04:09:30.775Z,1.2
2022-10-31T04:10:40.504Z,1.3
2022-10-31T04:11:49.218Z,1.8
2022-10-31T04:12:58.255Z,1.5
2022-10-31T04:14:07.726Z,1.2
2022-10-31T04:15:15.459Z,1.3
2022-10-31T04:16:25.140Z,1
2022-10-31T04:17:32.853Z,1.4
2022-10-31T04:18:41.539Z,1.2
2022-10-31T04:19:51.235Z,1.3
2022-10-31T04:20:58.950Z,1.4
2022-10-31T04:22:08.710Z,1.3
2022-10-31T04:23:18.392Z,1.1
2022-10-31T04:24:26.090Z,1.4
2022-10-31T04:25:35.803Z,1.1
2022-10-31T04:26:43.502Z,1.5
2022-10-31T04:27:53.239Z,1.2
2022-10-31T04:29:01.967Z,1.2
2022-10-31T04:30:11.708Z,1.3
2022-10-31T04:31:21.364Z,1.5
2022-10-31T04:32:30.067Z,1.7
2022-10-31T04:33:37.783Z,1.2
2022-10-31T04:34:47.497Z,1.4
2022-10-31T04:35:56.208Z,1.2
2022-10-31T04:37:05.919Z,1.3
2022-10-31T04:38:15.614Z,1.5
2022-10-31T04:39:26.640Z,1.4
2022-10-31T04:40:36.048Z,1.2
2022-10-31T04:41:45.784Z,1.2
2022-10-31T04:42:53.487Z,1
2022-10-31T04:44:03.285Z,1.1
2022-10-31T04:45:12.520Z,1.1
2022-10-31T04:46:21.737Z,1.3
2022-10-31T04:47:31.415Z,1
2022-10-31T04:48:39.133Z,1.2
2022-10-31T04:49:48.881Z,0.8
2022-10-31T04:50:57.658Z,1.1
2022-10-31T04:52:06.434Z,1.1
2022-10-31T04:53:16.193Z,1.1
2022-10-31T04:54:25.888Z,0.8
2022-10-31T04:55:34.655Z,1.2
2022-10-31T04:56:44.384Z,1.2
2022-10-31T04:57:52.120Z,1.1
2022-10-31T04:59:01.842Z,1.1
2022-10-31T05:00:11.555Z,1.1
2022-10-31T05:01:20.315Z,0.9
2022-10-31T05:02:30.137Z,1.1
2022-10-31T05:03:37.770Z,1.1
2022-10-31T05:04:47.570Z,0.8
2022-10-31T05:05:57.281Z,1.2
2022-10-31T05:07:06.045Z,1
2022-10-31T05:08:15.793Z,1.4
2022-10-31T05:09:24.507Z,0.9
2022-10-31T05:10:33.261Z,1
2022-10-31T05:11:43.034Z,1
2022-10-31T05:12:52.764Z,1.2
2022-10-31T05:14:02.563Z,1
2022-10-31T05:15:12.297Z,1.1
2022-10-31T05:16:20.027Z,1.1
2022-10-31T05:17:29.728Z,1
2022-10-31T05:18:40.474Z,1.3
2022-10-31T05:19:48.196Z,0.9
2022-10-31T05:20:57.913Z,0.8
2022-10-31T05:22:06.618Z,1.2
2022-10-31T05:23:16.317Z,0.8
2022-10-31T05:24:26.046Z,0.9
2022-10-31T05:25:33.878Z,1.1
2022-10-31T05:26:43.658Z,1.3
2022-10-31T05:27:53.343Z,1.2
2022-10-31T05:29:03.067Z,1.2
2022-10-31T05:30:12.753Z,1.2
2022-10-31T05:31:21.497Z,1.2
2022-10-31T05:32:31.260Z,0.9
2022-10-31T05:33:42.015Z,1.2
2022-10-31T05:34:51.720Z,1.3
2022-10-31T05:36:01.563Z,1.3
2022-10-31T05:37:11.252Z,1.1
2022-10-31T05:38:20.215Z,0.9
2022-10-31T05:39:29.980Z,0.9
2022-10-31T05:40:37.673Z,1.4
2022-10-31T05:41:46.498Z,1.2
2022-10-31T05:42:56.405Z,0.8
2022-10-31T05:44:06.103Z,0.8
2022-10-31T05:45:15.883Z,1.2
2022-10-31T05:46:24.700Z,0.9
2022-10-31T05:47:34.486Z,0.8
2022-10-31T05:48:44.222Z,1.1
2022-10-31T05:49:53.729Z,1.2
2022-10-31T05:51:03.332Z,0.9
2022-10-31T05:52:13.285Z,1
2022-10-31T05:53:21.238Z,0.8
2022-10-31T05:54:31.527Z,0.8
2022-10-31T05:55:40.246Z,1
2022-10-31T05:56:47.961Z,1
2022-10-31T05:57:56.774Z,1.2
2022-10-31T05:59:06.435Z,1
2022-10-31T06:00:15.398Z,0.9
2022-10-31T06:01:25.218Z,1.1
2022-10-31T06:02:33.978Z,0.8
2022-10-31T06:03:42.906Z,1
2022-10-31T06:04:51.735Z,1
2022-10-31T06:06:00.431Z,1.1
2022-10-31T06:07:09.127Z,1.4
2022-10-31T06:08:18.799Z,0.8
2022-10-31T06:09:27.499Z,1.1
2022-10-31T06:10:37.238Z,1
2022-10-31T06:11:46.017Z,0.9
2022-10-31T06:12:54.745Z,0.8
2022-10-31T06:14:04.462Z,1.2
2022-10-31T06:15:12.140Z,1
2022-10-31T06:16:21.943Z,1.4
2022-10-31T06:17:31.654Z,0.8
2022-10-31T06:18:40.347Z,1.2
2022-10-31T06:20:58.881Z,0.8
2022-10-31T06:22:07.618Z,0.8
2022-10-31T06:23:17.345Z,0.7
2022-10-31T06:24:27.076Z,1.3
2022-10-31T06:25:35.743Z,1.1
2022-10-31T06:26:45.437Z,1
2022-10-31T06:27:53.130Z,1.2
2022-10-31T06:29:03.891Z,1
2022-10-31T06:30:11.745Z,1
2022-10-31T06:31:20.463Z,1.4
2022-10-31T06:32:30.217Z,0.9
2022-10-31T06:33:38.904Z,0.9
2022-10-31T06:34:47.650Z,1.2
2022-10-31T06:35:57.429Z,1
2022-10-31T06:37:06.133Z,0.7
2022-10-31T06:38:15.872Z,1.5
2022-10-31T06:39:26.623Z,1.6
2022-10-31T06:40:34.365Z,1.7
2022-10-31T06:41:44.086Z,1.4
2022-10-31T06:42:51.761Z,1.2
2022-10-31T06:44:03.519Z,1.1
2022-10-31T06:45:11.234Z,1.2
2022-10-31T06:46:19.989Z,1
2022-10-31T06:47:29.727Z,1.7
2022-10-31T06:48:38.452Z,1.3
2022-10-31T06:49:47.149Z,1.1
2022-10-31T06:50:59.568Z,1.2
2022-10-31T06:52:06.625Z,1
2022-10-31T06:53:16.416Z,0.8
2022-10-31T06:54:26.219Z,0.7
2022-10-31T06:55:36.890Z,0.8
2022-10-31T06:56:46.635Z,0.9
2022-10-31T06:57:56.490Z,0.9
2022-10-31T06:59:04.016Z,0.7
2022-10-31T07:00:13.711Z,1
2022-10-31T07:01:21.546Z,0.9
2022-10-31T07:02:30.382Z,1
2022-10-31T07:03:40.055Z,0.7
2022-10-31T07:04:49.733Z,0.6
2022-10-31T07:05:59.457Z,1.3
2022-10-31T07:07:08.161Z,1.3
2022-10-31T07:08:16.917Z,0.9
2022-10-31T07:09:26.662Z,0.8
2022-10-31T07:10:35.784Z,1
2022-10-31T07:11:44.062Z,0.7
2022-10-31T07:12:53.786Z,1
2022-10-31T07:14:02.465Z,0.8
2022-10-31T07:15:12.322Z,0.8
2022-10-31T07:16:22.005Z,0.9
2022-10-31T07:17:31.714Z,0.7
2022-10-31T07:18:41.416Z,0.8
2022-10-31T07:19:50.140Z,1
2022-10-31T07:20:58.891Z,0.6
2022-10-31T07:22:08.642Z,1
2022-10-31T07:23:17.396Z,0.9
2022-10-31T07:24:27.236Z,0.8
2022-10-31T07:25:35.993Z,0.6
2022-10-31T07:26:45.802Z,0.8
2022-10-31T07:27:55.460Z,0.6
2022-10-31T07:29:03.149Z,0.8
2022-10-31T07:30:11.841Z,0.6
2022-10-31T07:31:21.597Z,0.7
2022-10-31T07:32:31.348Z,0.9
2022-10-31T07:33:41.080Z,0.7
2022-10-31T07:34:50.845Z,1.1
2022-10-31T07:35:59.560Z,1.1
2022-10-31T07:37:09.260Z,2.4
2022-10-31T07:38:18.999Z,0.8
2022-10-31T07:39:27.714Z,0.7
2022-10-31T07:40:37.451Z,0.7
2022-10-31T07:41:46.183Z,1.2
2022-10-31T07:42:55.976Z,1.3
2022-10-31T07:44:05.647Z,0.8
2022-10-31T07:45:15.356Z,0.6
2022-10-31T07:46:24.262Z,0.7
2022-10-31T07:47:33.950Z,0.5
2022-10-31T07:48:41.663Z,0.8
2022-10-31T07:49:51.459Z,0.8
2022-10-31T07:51:00.177Z,0.7
2022-10-31T07:52:08.962Z,0.8
2022-10-31T07:53:18.684Z,1.8
2022-10-31T07:54:28.417Z,1.2
2022-10-31T07:55:38.254Z,0.5
2022-10-31T07:56:48.011Z,0.8
2022-10-31T07:57:57.976Z,0.7
2022-10-31T07:59:06.485Z,0.7
2022-10-31T08:00:16.262Z,0.7
2022-10-31T08:01:25.112Z,0.8
2022-10-31T08:02:34.897Z,0.6
2022-10-31T08:03:44.675Z,0.4
2022-10-31T08:04:55.871Z,0.4
2022-10-31T08:06:04.113Z,0.4
2022-10-31T08:07:13.913Z,0.6
2022-10-31T08:08:20.637Z,0.9
2022-10-31T08:09:30.362Z,1
2022-10-31T08:10:39.163Z,0.5
2022-10-31T08:11:47.787Z,0.5
2022-10-31T08:12:57.714Z,0.4
2022-10-31T08:14:08.303Z,0.6
2022-10-31T08:15:18.109Z,0.4
2022-10-31T08:16:26.812Z,0.6
2022-10-31T08:17:35.541Z,0.7
2022-10-31T08:18:45.320Z,0.4
2022-10-31T08:19:53.043Z,0.4
2022-10-31T08:21:02.791Z,0.3
2022-10-31T08:22:12.559Z,0.5
2022-10-31T08:23:21.282Z,0.5
2022-10-31T08:24:31.177Z,0.6
2022-10-31T08:25:41.233Z,0.3
2022-10-31T08:26:50.042Z,0.4
2022-10-31T08:27:59.987Z,0.3
2022-10-31T08:29:07.515Z,0.7
2022-10-31T08:30:17.328Z,0.3
2022-10-31T08:31:32.135Z,0.8
2022-10-31T08:32:37.813Z,0.5
2022-10-31T08:33:47.494Z,0.5
2022-10-31T08:34:56.206Z,0.8
2022-10-31T08:36:04.981Z,0.5
2022-10-31T08:37:14.845Z,0.4
2022-10-31T08:38:23.735Z,0.3
2022-10-31T08:39:32.496Z,0.4
2022-10-31T08:40:42.227Z,0.4
2022-10-31T08:41:49.991Z,0.7
2022-10-31T08:42:59.734Z,0.6
2022-10-31T08:44:09.430Z,0.5
2022-10-31T08:45:17.159Z,0.3
2022-10-31T08:46:25.940Z,0.4
2022-10-31T08:47:35.630Z,0.3
2022-10-31T08:48:44.476Z,0.6
2022-10-31T08:49:54.216Z,0.6
2022-10-31T08:51:01.947Z,0.5
2022-10-31T08:52:14.396Z,0.6
2022-10-31T08:53:21.560Z,0.8
2022-10-31T08:54:30.292Z,0.3
2022-10-31T08:55:40.024Z,0.6
2022-10-31T08:56:48.770Z,0.8
2022-10-31T08:57:58.931Z,0.3
2022-10-31T08:59:08.308Z,0.6
2022-10-31T09:00:16.999Z,0.3
2022-10-31T09:01:26.760Z,0.5
2022-10-31T09:02:35.429Z,0.6
2022-10-31T09:03:43.135Z,0.5
2022-10-31T09:04:53.072Z,0.6
2022-10-31T09:06:00.991Z,0.5
2022-10-31T09:07:25.825Z,0.4
2022-10-31T09:08:21.146Z,0.5
2022-10-31T09:09:28.892Z,0.4
2022-10-31T09:10:38.706Z,0.5
2022-10-31T09:11:48.382Z,0.6
2022-10-31T09:12:57.238Z,0.4
2022-10-31T09:14:05.854Z,0.4
2022-10-31T09:15:13.639Z,0.4
2022-10-31T09:16:22.408Z,0.5
2022-10-31T09:17:32.160Z,0.5
2022-10-31T09:18:39.913Z,0.2
2022-10-31T09:19:49.671Z,0.8
2022-10-31T09:20:58.476Z,0.3
2022-10-31T09:22:07.325Z,0.2
2022-10-31T09:23:17.174Z,0.6
2022-10-31T09:24:25.884Z,0.2
2022-10-31T09:25:33.735Z,0.5
2022-10-31T09:26:43.452Z,0.5
2022-10-31T09:27:53.312Z,0.5
2022-10-31T09:29:02.050Z,0.5
2022-10-31T09:30:10.824Z,0.6
2022-10-31T09:31:19.518Z,0.3
2022-10-31T09:32:29.277Z,0.8
2022-10-31T09:33:38.022Z,0.4
2022-10-31T09:34:47.808Z,0.7
2022-10-31T09:35:57.593Z,0.4
2022-10-31T09:37:05.243Z,0.3
2022-10-31T09:38:15.011Z,0.6
2022-10-31T09:39:23.768Z,0.8
2022-10-31T09:40:32.520Z,0.7
2022-10-31T09:41:42.241Z,0.6
2022-10-31T09:42:50.987Z,0.4
2022-10-31T09:43:59.723Z,0.7
2022-10-31T09:45:09.437Z,0.3
2022-10-31T09:46:17.176Z,0.3
2022-10-31T09:47:26.883Z,0.3
2022-10-31T09:48:35.606Z,0.5
2022-10-31T09:49:43.398Z,0.3
2022-10-31T09:50:53.124Z,0.6
2022-10-31T09:52:02.931Z,0.3
2022-10-31T09:53:11.643Z,0.5
2022-10-31T09:54:21.358Z,0.4
2022-10-31T09:55:30.063Z,0.5
2022-10-31T09:56:39.884Z,0.5
2022-10-31T09:57:49.767Z,0.2
2022-10-31T09:58:58.436Z,0.3
2022-10-31T10:00:08.185Z,0.6
2022-10-31T10:01:18.038Z,0.3
2022-10-31T10:02:25.632Z,0.3
2022-10-31T10:03:35.367Z,0.3
2022-10-31T10:04:44.090Z,0.3
2022-10-31T10:05:51.815Z,0.7
2022-10-31T10:07:01.785Z,0.3
2022-10-31T10:08:11.447Z,0.6
2022-10-31T10:10:29.940Z,0.3
2022-10-31T10:11:37.638Z,0.4
2022-10-31T10:12:47.409Z,0.5
2022-10-31T10:13:57.138Z,0.3
2022-10-31T10:15:06.902Z,0.4
2022-10-31T10:16:16.621Z,0.3
2022-10-31T10:17:25.353Z,0.5
2022-10-31T10:18:35.082Z,0.5
2022-10-31T10:19:44.864Z,0.4
2022-10-31T10:20:53.583Z,0.4
2022-10-31T10:22:03.311Z,0.4
2022-10-31T10:23:13.184Z,0.3
2022-10-31T10:24:21.141Z,0.2
2022-10-31T10:25:30.995Z,0.3
2022-10-31T10:26:40.807Z,0.2
2022-10-31T10:27:49.653Z,0.5
2022-10-31T10:28:59.229Z,0.2
2022-10-31T10:30:08.971Z,0.3
2022-10-31T10:31:18.787Z,0.3
2022-10-31T10:32:27.459Z,0.5
2022-10-31T10:33:37.268Z,0.3
2022-10-31T10:34:46.981Z,0.2
2022-10-31T10:35:55.685Z,0.4
2022-10-31T10:37:04.442Z,0.5
2022-10-31T10:38:14.167Z,0.4
2022-10-31T10:39:24.020Z,0.3
2022-10-31T10:40:33.695Z,0.3
2022-10-31T10:41:43.421Z,0.4
2022-10-31T10:42:52.325Z,0.7
2022-10-31T10:44:02.075Z,0.3
2022-10-31T10:45:09.849Z,0.1
2022-10-31T10:46:18.533Z,0.3
2022-10-31T10:47:28.377Z,0.4
2022-10-31T10:48:36.206Z,0.3
2022-10-31T10:49:45.971Z,0.6
2022-10-31T10:50:55.666Z,0.5
2022-10-31T10:52:39.523Z,0.3
2022-10-31T10:53:16.126Z,0.7
2022-10-31T10:54:25.980Z,0.5
2022-10-31T10:55:34.748Z,0.4
2022-10-31T10:56:44.588Z,0.4
2022-10-31T10:57:53.389Z,0.4
2022-10-31T10:59:03.200Z,0.3
2022-10-31T11:00:12.224Z,0.3
2022-10-31T11:01:19.708Z,0.4
2022-10-31T11:02:29.435Z,0.3
2022-10-31T11:03:37.704Z,0.5
2022-10-31T11:04:46.481Z,0.6
2022-10-31T11:05:56.217Z,0.4
2022-10-31T11:07:06.711Z,0.6
2022-10-31T11:08:16.427Z,0.3
2022-10-31T11:09:26.125Z,0.3
2022-10-31T11:10:35.506Z,0.4
2022-10-31T11:11:45.308Z,0.4
2022-10-31T11:12:54.021Z,0.5
2022-10-31T11:14:03.742Z,0.6
2022-10-31T11:15:13.546Z,0.5
2022-10-31T11:16:22.337Z,0.3
2022-10-31T11:17:32.051Z,0.4
2022-10-31T11:18:40.747Z,0.3
2022-10-31T11:19:50.448Z,0.4
2022-10-31T11:21:00.608Z,0.4
2022-10-31T11:22:08.360Z,0.4
2022-10-31T11:23:18.191Z,0.3
2022-10-31T11:24:27.886Z,0.4
2022-10-31T11:25:36.016Z,0.6
2022-10-31T11:26:45.691Z,0.3
2022-10-31T11:27:54.387Z,0.7
2022-10-31T11:29:04.141Z,0.3
2022-10-31T11:30:13.896Z,0.3
2022-10-31T11:31:25.450Z,0.6
2022-10-31T11:32:34.940Z,0.5
2022-10-31T11:33:46.341Z,0.7
2022-10-31T11:34:55.506Z,0.7
2022-10-31T11:36:05.223Z,0.4
2022-10-31T11:37:13.997Z,0.5
2022-10-31T11:38:23.724Z,0.9
2022-10-31T11:39:33.492Z,0.4
2022-10-31T11:40:42.257Z,0.7
2022-10-31T11:41:51.945Z,0.7
2022-10-31T11:43:01.663Z,0.3
2022-10-31T11:44:10.393Z,0.4
2022-10-31T11:45:20.190Z,0.4
2022-10-31T11:46:28.960Z,0.5
2022-10-31T11:47:36.737Z,0.4
2022-10-31T11:48:46.469Z,0.3
2022-10-31T11:49:54.419Z,0.3
2022-10-31T11:51:03.140Z,0.8
2022-10-31T11:52:11.940Z,0.4
2022-10-31T11:53:20.653Z,0.2
2022-10-31T11:54:29.408Z,0.7
2022-10-31T11:55:39.124Z,0.5
2022-10-31T11:56:47.820Z,0.5
2022-10-31T11:57:57.736Z,0.5
2022-10-31T11:59:07.390Z,0.4
2022-10-31T12:00:16.250Z,0.7
2022-10-31T12:01:25.945Z,0.4
2022-10-31T12:02:34.718Z,0.4
2022-10-31T12:03:43.394Z,0.5
2022-10-31T12:04:53.273Z,0.7
2022-10-31T12:06:01.017Z,0.5
2022-10-31T12:07:10.799Z,0.5
2022-10-31T12:08:20.540Z,0.5
2022-10-31T12:09:29.277Z,0.7
2022-10-31T12:10:39.005Z,1
2022-10-31T12:11:47.676Z,0.6
2022-10-31T12:12:57.626Z,0.4
2022-10-31T12:14:07.155Z,0.5
2022-10-31T12:15:17.068Z,0.3
2022-10-31T12:16:25.786Z,0.6
2022-10-31T12:17:35.527Z,0.7
2022-10-31T12:18:43.279Z,0.3
2022-10-31T12:19:53.966Z,0.5
2022-10-31T12:21:02.773Z,1
2022-10-31T12:22:10.482Z,0.5
2022-10-31T12:23:20.233Z,0.5
2022-10-31T12:24:29.943Z,0.5
2022-10-31T12:25:39.645Z,0.9
2022-10-31T12:26:49.396Z,0.6
2022-10-31T12:27:58.134Z,0.4
2022-10-31T12:29:08.009Z,0.5
2022-10-31T12:30:17.747Z,0.4
2022-10-31T12:31:26.626Z,0.3
2022-10-31T12:32:36.270Z,0.5
2022-10-31T12:33:44.088Z,0.4
2022-10-31T12:34:53.861Z,0.3
2022-10-31T12:36:03.603Z,0.4
2022-10-31T12:37:11.361Z,0.6
2022-10-31T12:38:21.179Z,0.8
2022-10-31T12:39:29.927Z,0.4
2022-10-31T12:40:39.746Z,0.8
2022-10-31T12:41:49.849Z,0.5
2022-10-31T12:42:58.831Z,0.9
2022-10-31T12:44:07.403Z,0.5
2022-10-31T12:45:17.098Z,0.7
2022-10-31T12:46:26.883Z,0.3
2022-10-31T12:47:36.670Z,0.7
2022-10-31T12:48:45.434Z,0.5
2022-10-31T12:49:54.138Z,0.5
2022-10-31T12:51:03.861Z,0.5
2022-10-31T12:52:11.527Z,0.7
2022-10-31T12:53:21.267Z,0.7
2022-10-31T12:54:31.025Z,0.5
2022-10-31T12:55:39.769Z,0.7
2022-10-31T12:56:49.496Z,0.5
2022-10-31T12:57:58.726Z,0.5
2022-10-31T12:59:07.052Z,0.4
2022-10-31T13:00:16.790Z,0.5
2022-10-31T13:01:25.668Z,0.6
2022-10-31T13:02:35.338Z,0.6
2022-10-31T13:03:45.076Z,0.6
2022-10-31T13:04:54.845Z,0.4
2022-10-31T13:06:04.526Z,0.4
2022-10-31T13:07:13.318Z,0.3
2022-10-31T13:08:21.111Z,0.4
2022-10-31T13:09:30.847Z,0.5
2022-10-31T13:10:39.633Z,0.5
2022-10-31T13:11:48.376Z,0.5
2022-10-31T13:12:58.403Z,0.5
2022-10-31T13:14:07.917Z,0.6
2022-10-31T13:15:17.638Z,0.4
2022-10-31T13:16:26.363Z,0.4
2022-10-31T13:17:34.093Z,0.7
2022-10-31T13:18:44.072Z,0.7
2022-10-31T13:19:51.851Z,0.7
2022-10-31T13:21:00.567Z,0.4
2022-10-31T13:22:10.357Z,0.9
2022-10-31T13:23:44.562Z,0.9
2022-10-31T13:24:31.247Z,0.9
2022-10-31T13:25:40.986Z,0.4
2022-10-31T13:26:50.768Z,0.4
2022-10-31T13:28:01.035Z,0.6
2022-10-31T13:29:12.319Z,0.6
2022-10-31T13:30:22.345Z,0.6
2022-10-31T13:31:31.859Z,0.5
2022-10-31T13:32:42.848Z,0.6
2022-10-31T13:33:52.516Z,0.6
2022-10-31T13:35:02.747Z,0.5
2022-10-31T13:36:13.589Z,0.7
2022-10-31T13:37:24.317Z,0.3
2022-10-31T13:38:34.119Z,0.3
2022-10-31T13:39:44.843Z,0.4
2022-10-31T13:40:54.561Z,0.4
2022-10-31T13:42:05.942Z,0.4
2022-10-31T13:43:16.587Z,0.5
2022-10-31T13:44:25.976Z,0.6
2022-10-31T13:45:35.397Z,0.3
2022-10-31T13:46:45.180Z,0.6
2022-10-31T13:47:53.961Z,0.5
2022-10-31T13:49:02.665Z,0.5
2022-10-31T13:50:16.762Z,0.3
2022-10-31T13:51:25.911Z,0.5
2022-10-31T13:52:35.520Z,0.3
2022-10-31T13:53:45.328Z,0.2
2022-10-31T13:54:55.053Z,1
2022-10-31T13:56:04.258Z,0.5
2022-10-31T13:57:16.312Z,0.8
2022-10-31T13:58:24.957Z,0.6
2022-10-31T13:59:34.753Z,0.4
2022-10-31T14:00:44.613Z,0.5
2022-10-31T14:01:52.498Z,0.5
2022-10-31T14:03:02.258Z,0.9
2022-10-31T14:04:22.265Z,0.6
2022-10-31T14:05:21.711Z,0.7
2022-10-31T14:06:31.415Z,0.7
2022-10-31T14:07:39.277Z,0.6
2022-10-31T14:08:49.114Z,0.9
2022-10-31T14:09:58.543Z,1
2022-10-31T14:11:07.371Z,0.6
2022-10-31T14:12:17.015Z,0.6
2022-10-31T14:13:25.471Z,0.7
2022-10-31T14:14:35.226Z,0.7
2022-10-31T14:15:44.979Z,0.7
2022-10-31T14:16:55.788Z,0.6
2022-10-31T14:18:04.986Z,0.9
2022-10-31T14:19:13.238Z,1
2022-10-31T14:20:21.960Z,0.5
2022-10-31T14:21:31.682Z,0.8
2022-10-31T14:22:42.997Z,0.7
2022-10-31T14:23:53.996Z,0.8
2022-10-31T14:25:01.935Z,0.8
2022-10-31T14:26:11.649Z,0.6
2022-10-31T14:27:20.653Z,0.6
2022-10-31T14:28:30.389Z,0.6
2022-10-31T14:29:39.100Z,0.9
2022-10-31T14:30:48.859Z,0.7
2022-10-31T14:31:57.647Z,0.7
2022-10-31T14:33:07.395Z,0.6
2022-10-31T14:34:17.128Z,0.5
2022-10-31T14:35:26.815Z,0.4
2022-10-31T14:36:36.557Z,0.7
2022-10-31T14:37:45.248Z,0.6
2022-10-31T14:38:52.987Z,0.6
2022-10-31T14:40:02.800Z,0.3
2022-10-31T14:41:11.635Z,0.6
2022-10-31T14:42:20.705Z,1
2022-10-31T14:43:30.492Z,0.7
2022-10-31T14:44:38.238Z,0.9
2022-10-31T14:45:48.983Z,0.7
2022-10-31T14:46:58.768Z,0.5
2022-10-31T14:48:08.445Z,0.8
2022-10-31T14:49:18.217Z,0.8
2022-10-31T14:50:26.927Z,0.6
2022-10-31T14:51:35.648Z,0.5
2022-10-31T14:52:45.431Z,0.9
2022-10-31T14:53:53.135Z,0.4
2022-10-31T14:55:02.849Z,0.6
2022-10-31T14:56:14.358Z,0.9
2022-10-31T14:57:22.865Z,0.6
2022-10-31T14:58:33.709Z,0.8
2022-10-31T14:59:42.016Z,0.5
2022-10-31T15:00:51.836Z,0.8
2022-10-31T15:02:02.585Z,1
2022-10-31T15:03:12.879Z,0.6
2022-10-31T15:04:24.483Z,0.7
2022-10-31T15:05:33.528Z,0.8
2022-10-31T15:06:41.569Z,0.7
2022-10-31T15:07:51.469Z,0.7
2022-10-31T15:08:59.257Z,0.6
2022-10-31T15:10:09.020Z,0.7
2022-10-31T15:11:18.712Z,0.7
2022-10-31T15:12:26.457Z,0.6
2022-10-31T15:13:35.275Z,0.5
2022-10-31T15:14:43.934Z,0.5
2022-10-31T15:15:53.655Z,0.4
2022-10-31T15:17:03.441Z,1.1
2022-10-31T15:18:13.133Z,0.9
2022-10-31T15:19:20.858Z,0.8
2022-10-31T15:20:30.655Z,0.6
2022-10-31T15:21:39.563Z,0.5
2022-10-31T15:22:49.331Z,0.5
2022-10-31T15:23:58.081Z,0.7
2022-10-31T15:25:09.343Z,0.9
2022-10-31T15:26:19.302Z,0.6
2022-10-31T15:27:29.062Z,0.6
2022-10-31T15:28:38.766Z,0.4
2022-10-31T15:29:48.505Z,0.6
2022-10-31T15:30:58.864Z,0.5
2022-10-31T15:32:09.224Z,0.6
2022-10-31T15:33:20.595Z,1
2022-10-31T15:34:29.379Z,1
2022-10-31T15:35:39.941Z,0.9
2022-10-31T15:36:48.789Z,0.5
2022-10-31T15:37:59.060Z,0.9
2022-10-31T15:39:08.442Z,1
2022-10-31T15:40:17.251Z,1.1
2022-10-31T15:41:27.057Z,1.3
2022-10-31T15:42:36.809Z,1.1
2022-10-31T15:43:45.759Z,0.9
2022-10-31T15:44:55.691Z,0.8
2022-10-31T15:46:04.387Z,0.9
2022-10-31T15:47:17.009Z,0.6
2022-10-31T15:48:25.933Z,0.7
2022-10-31T15:49:35.654Z,1
2022-10-31T15:50:46.913Z,0.9
2022-10-31T15:51:56.467Z,1.1
2022-10-31T15:53:05.604Z,1
2022-10-31T15:54:18.122Z,1.4
2022-10-31T15:55:27.577Z,0.9
2022-10-31T15:56:38.693Z,0.8
2022-10-31T15:57:48.787Z,1.3
2022-10-31T15:58:58.536Z,0.8
2022-10-31T16:00:07.291Z,1
2022-10-31T16:01:17.114Z,0.6
2022-10-31T16:02:24.963Z,1.1
2022-10-31T16:03:34.548Z,0.9